Time;durP1;ratioP1;P1;durP2;ratioP2;P2;SDS_P1;SDS_P2;PMS_P1;PMS_P2;Temp;Humidity;BMP_temperature;BMP_pressure;BME280_temperature;BME280_humidity;BME280_pressure;Samples;Min_cycle;Max_cycle;Signal;HPM_P1;HPM_P2
2021/06/21 00:00:19;;;;;;;6.63;2.17;;;18.40;99.90;;;;;;5131731;27;20442;-68
2021/06/21 00:02:47;;;;;;;6.47;2.17;;;18.50;99.90;;;;;;5131204;27;20983;-68
2021/06/21 00:05:15;;;;;;;7.20;2.03;;;18.40;99.90;;;;;;5131789;27;21021;-68
2021/06/21 00:07:44;;;;;;;3.97;1.57;;;18.30;99.90;;;;;;5131089;27;20426;-68
2021/06/21 00:10:14;;;;;;;5.03;1.70;;;18.30;99.90;;;;;;5132032;28;20915;-68
2021/06/21 00:12:44;;;;;;;4.93;1.90;;;18.30;99.90;;;;;;5131151;28;20541;-68
2021/06/21 00:15:12;;;;;;;6.23;2.00;;;18.30;99.90;;;;;;5132238;28;20451;-68
2021/06/21 00:17:39;;;;;;;9.50;2.10;;;18.30;99.90;;;;;;5132107;28;20437;-68
2021/06/21 00:20:08;;;;;;;6.30;2.33;;;18.20;99.90;;;;;;5131873;28;20470;-68
2021/06/21 00:22:34;;;;;;;5.40;1.63;;;18.20;99.90;;;;;;5131695;28;20526;-68
2021/06/21 00:25:04;;;;;;;9.40;2.13;;;18.30;99.90;;;;;;5131332;28;20522;-69
2021/06/21 00:27:32;;;;;;;4.50;1.90;;;18.20;99.90;;;;;;5131619;28;20449;-69
2021/06/21 00:29:59;;;;;;;6.47;1.50;;;18.30;99.90;;;;;;5131327;28;20545;-67
2021/06/21 00:32:26;;;;;;;5.43;2.07;;;18.30;99.90;;;;;;5131551;28;20475;-67
2021/06/21 00:34:53;;;;;;;6.17;2.00;;;18.20;99.90;;;;;;5130860;28;20447;-69
2021/06/21 00:37:19;;;;;;;5.17;1.50;;;18.10;99.90;;;;;;5131629;28;20526;-68
2021/06/21 00:39:46;;;;;;;3.40;1.57;;;18.10;99.90;;;;;;5131588;28;20537;-67
2021/06/21 00:42:15;;;;;;;7.80;2.20;;;18.20;99.90;;;;;;5131660;28;20490;-68
2021/06/21 00:44:42;;;;;;;4.37;1.60;;;18.10;99.90;;;;;;5131322;28;20453;-68
2021/06/21 00:47:13;;;;;;;5.23;1.80;;;18.10;99.90;;;;;;5131686;28;20442;-68
2021/06/21 00:49:40;;;;;;;7.60;1.77;;;18.10;99.90;;;;;;5131976;28;20858;-68
2021/06/21 00:52:10;;;;;;;6.27;2.60;;;18.10;99.90;;;;;;5130790;28;20569;-68
2021/06/21 00:54:38;;;;;;;3.20;1.40;;;18.30;99.90;;;;;;5131175;28;20982;-68
2021/06/21 00:57:06;;;;;;;5.33;1.60;;;18.30;99.90;;;;;;5131265;28;20977;-68
2021/06/21 00:59:34;;;;;;;3.73;1.47;;;18.00;99.90;;;;;;5132352;28;20522;-68
2021/06/21 01:02:02;;;;;;;4.57;1.30;;;18.10;99.90;;;;;;5130728;28;20446;-67
2021/06/21 01:04:29;;;;;;;10.80;3.87;;;18.00;99.90;;;;;;5131442;28;20439;-67
2021/06/21 01:06:56;;;;;;;3.33;1.90;;;18.00;99.90;;;;;;5130994;28;20443;-68
2021/06/21 01:09:24;;;;;;;3.97;1.57;;;18.10;99.90;;;;;;5130706;28;20910;-68
2021/06/21 01:11:55;;;;;;;8.67;3.17;;;18.00;99.90;;;;;;5131062;28;20435;-68
2021/06/21 01:14:28;;;;;;;5.20;1.50;;;18.00;99.90;;;;;;5131042;28;20475;-68
2021/06/21 01:17:05;;;;;;;4.70;1.60;;;18.00;99.90;;;;;;5133083;27;20423;-68
2021/06/21 01:20:03;;;;;;;4.50;1.80;;;18.10;99.90;;;;;;5135284;27;20782;-69
2021/06/21 01:23:10;;;;;;;3.87;2.00;;;18.00;99.90;;;;;;5135171;27;20431;-69
2021/06/21 01:25:41;;;;;;;7.60;2.30;;;18.00;99.90;;;;;;5134845;27;20433;-68
2021/06/21 01:28:15;;;;;;;7.43;2.20;;;18.10;99.90;;;;;;5134519;27;20445;-68
2021/06/21 01:30:53;;;;;;;5.37;1.87;;;18.00;99.90;;;;;;5114626;28;20446;-68
2021/06/21 01:33:23;;;;;;;4.93;1.27;;;18.00;99.90;;;;;;5126761;27;20462;-68
2021/06/21 01:35:55;;;;;;;5.93;2.00;;;18.10;99.90;;;;;;5133843;27;20427;-68
2021/06/21 01:38:28;;;;;;;4.83;3.03;;;18.00;99.90;;;;;;5135223;27;20879;-69
2021/06/21 01:40:57;;;;;;;4.93;2.20;;;18.00;99.90;;;;;;5133775;27;20423;-69
2021/06/21 01:43:28;;;;;;;8.93;3.23;;;18.00;99.90;;;;;;5134854;27;20452;-68
2021/06/21 01:45:56;;;;;;;4.47;1.50;;;18.10;99.90;;;;;;5133847;27;20888;-68
2021/06/21 01:48:27;;;;;;;5.50;1.77;;;18.10;99.90;;;;;;5134621;27;20453;-68
2021/06/21 01:50:59;;;;;;;4.23;2.50;;;18.10;99.90;;;;;;5134291;27;20427;-68
2021/06/21 01:53:29;;;;;;;6.30;1.87;;;18.20;99.90;;;;;;5134054;27;20492;-68
2021/06/21 01:55:59;;;;;;;6.73;2.00;;;18.20;99.90;;;;;;5133690;27;20509;-68
2021/06/21 01:58:28;;;;;;;2.97;1.73;;;18.10;99.90;;;;;;5134551;27;20424;-69
2021/06/21 02:00:55;;;;;;;4.43;2.07;;;18.20;99.90;;;;;;5133358;27;20442;-68
2021/06/21 02:03:24;;;;;;;5.93;1.90;;;18.10;99.90;;;;;;5134425;27;20455;-68
2021/06/21 02:05:53;;;;;;;5.23;2.27;;;18.10;99.90;;;;;;5133368;27;20530;-68
2021/06/21 02:08:21;;;;;;;5.77;2.00;;;18.00;99.90;;;;;;5133680;27;20497;-68
2021/06/21 02:10:52;;;;;;;5.40;1.97;;;18.00;99.90;;;;;;5133537;27;20518;-69
2021/06/21 02:13:21;;;;;;;6.00;2.00;;;17.90;99.90;;;;;;5133906;27;20471;-68
2021/06/21 02:15:49;;;;;;;5.80;1.30;;;18.00;99.90;;;;;;5133231;27;20442;-70
2021/06/21 02:18:19;;;;;;;4.87;2.27;;;17.90;99.90;;;;;;5134126;27;20482;-68
2021/06/21 02:20:47;;;;;;;4.43;1.83;;;17.90;99.90;;;;;;5133636;27;20519;-68
2021/06/21 02:23:17;;;;;;;6.47;2.70;;;17.90;99.90;;;;;;5133629;27;20526;-69
2021/06/21 02:25:45;;;;;;;6.30;1.97;;;18.00;99.90;;;;;;5133607;27;20470;-68
2021/06/21 02:28:13;;;;;;;5.63;2.40;;;18.00;99.90;;;;;;5132756;27;20481;-69
2021/06/21 02:30:41;;;;;;;4.10;2.50;;;18.00;99.90;;;;;;5133714;27;20526;-69
2021/06/21 02:33:08;;;;;;;5.17;2.00;;;18.20;99.90;;;;;;5133191;27;20725;-69
2021/06/21 02:35:35;;;;;;;3.80;1.53;;;18.20;99.90;;;;;;5133564;27;20475;-69
2021/06/21 02:38:02;;;;;;;4.43;2.20;;;18.30;99.90;;;;;;5133216;27;20541;-69
2021/06/21 02:40:30;;;;;;;4.27;2.20;;;18.30;99.90;;;;;;5133709;27;20451;-69
2021/06/21 02:42:57;;;;;;;3.27;1.60;;;18.50;99.90;;;;;;5132652;27;20438;-69
2021/06/21 02:45:24;;;;;;;7.40;2.20;;;18.50;99.90;;;;;;5133343;27;20521;-69
2021/06/21 02:47:53;;;;;;;3.73;2.00;;;18.50;99.90;;;;;;5133085;27;20549;-70
2021/06/21 02:50:21;;;;;;;8.10;1.80;;;18.70;99.90;;;;;;5133633;27;20530;-69
2021/06/21 02:53:00;;;;;;;6.60;2.23;;;18.60;99.90;;;;;;5133064;27;20477;-69
2021/06/21 02:55:35;;;;;;;8.03;3.23;;;18.50;99.90;;;;;;5132913;27;20806;-69
2021/06/21 02:58:08;;;;;;;8.93;2.00;;;18.40;99.90;;;;;;5132781;27;20525;-69
2021/06/21 03:00:38;;;;;;;5.47;2.03;;;18.30;99.90;;;;;;5133019;27;20434;-69
2021/06/21 03:03:09;;;;;;;8.60;2.40;;;18.30;99.90;;;;;;5132456;27;20474;-69
2021/06/21 03:05:38;;;;;;;6.03;2.33;;;18.10;99.90;;;;;;5132824;27;20431;-69
2021/06/21 03:08:09;;;;;;;5.47;2.30;;;18.10;99.90;;;;;;5131873;27;20447;-69
2021/06/21 03:10:39;;;;;;;5.20;1.93;;;18.10;99.90;;;;;;5132703;27;20810;-69
2021/06/21 03:13:08;;;;;;;6.17;2.67;;;18.10;99.90;;;;;;5132319;27;20463;-69
2021/06/21 03:15:36;;;;;;;3.90;2.17;;;18.10;99.90;;;;;;5132848;27;20441;-69
2021/06/21 03:18:04;;;;;;;3.23;1.80;;;18.10;99.90;;;;;;5132151;27;20439;-69
2021/06/21 03:20:31;;;;;;;6.93;1.73;;;18.10;99.90;;;;;;5132899;27;20439;-69
2021/06/21 03:23:00;;;;;;;4.80;1.67;;;18.10;99.90;;;;;;5112910;28;20523;-69
2021/06/21 03:25:29;;;;;;;6.23;2.27;;;18.20;99.90;;;;;;5133221;27;20435;-69
2021/06/21 03:27:58;;;;;;;4.97;1.87;;;18.20;99.90;;;;;;5130258;27;20485;-70
2021/06/21 03:30:26;;;;;;;7.40;1.90;;;18.20;99.90;;;;;;5130535;27;20503;-68
2021/06/21 03:32:53;;;;;;;8.03;2.60;;;18.20;99.90;;;;;;5131003;27;20477;-69
2021/06/21 03:35:22;;;;;;;3.47;1.90;;;18.30;99.90;;;;;;5132501;27;20442;-68
2021/06/21 03:37:49;;;;;;;6.33;2.10;;;18.20;99.90;;;;;;5132578;27;20438;-68
2021/06/21 03:40:16;;;;;;;5.87;2.43;;;18.20;99.90;;;;;;5131157;27;20446;-67
2021/06/21 03:42:43;;;;;;;5.00;1.77;;;18.20;99.90;;;;;;5132080;27;20435;-68
2021/06/21 03:45:13;;;;;;;5.10;2.07;;;18.10;99.90;;;;;;5131608;27;20477;-68
2021/06/21 03:47:41;;;;;;;6.77;2.60;;;18.10;99.90;;;;;;5132010;27;20960;-69
2021/06/21 03:50:09;;;;;;;6.07;2.53;;;18.10;99.90;;;;;;5131763;27;20435;-69
2021/06/21 03:52:36;;;;;;;5.70;3.23;;;18.10;99.90;;;;;;5131948;27;20894;-68
2021/06/21 03:55:07;;;;;;;6.90;1.70;;;18.20;99.90;;;;;;5131299;27;20663;-67
2021/06/21 03:57:36;;;;;;;9.93;2.30;;;18.20;99.90;;;;;;5132174;27;20430;-67
2021/06/21 04:00:05;;;;;;;11.27;3.07;;;18.20;99.90;;;;;;5131800;27;20539;-67
2021/06/21 04:02:34;;;;;;;4.00;2.43;;;18.40;99.90;;;;;;5132023;27;20473;-71
2021/06/21 04:05:00;;;;;;;5.23;2.30;;;18.30;99.90;;;;;;5131702;27;20847;-69
2021/06/21 04:07:27;;;;;;;6.07;2.43;;;18.20;99.90;;;;;;5132268;27;20514;-68
2021/06/21 04:09:54;;;;;;;4.40;2.43;;;18.20;99.90;;;;;;5131670;27;21050;-68
2021/06/21 04:12:23;;;;;;;4.53;2.80;;;18.20;99.90;;;;;;5132192;28;20430;-69
2021/06/21 04:14:50;;;;;;;5.10;2.10;;;18.20;99.90;;;;;;5114981;28;20481;-69
2021/06/21 04:17:17;;;;;;;8.20;2.40;;;18.40;99.90;;;;;;5131512;28;20525;-69
2021/06/21 04:19:45;;;;;;;2.70;1.60;;;18.40;99.90;;;;;;5132107;28;20519;-69
2021/06/21 04:22:12;;;;;;;7.87;2.80;;;18.30;99.90;;;;;;5131464;28;20515;-70
2021/06/21 04:24:39;;;;;;;6.90;2.20;;;18.30;99.90;;;;;;5131521;28;20533;-70
2021/06/21 04:27:07;;;;;;;5.43;2.20;;;18.40;99.90;;;;;;5131483;28;20529;-69
2021/06/21 04:29:33;;;;;;;11.87;2.33;;;18.40;99.90;;;;;;5131911;28;20466;-69
2021/06/21 04:32:00;;;;;;;3.57;1.80;;;18.40;99.90;;;;;;5131464;28;20789;-70
2021/06/21 04:34:27;;;;;;;6.63;2.07;;;18.30;99.90;;;;;;5132013;28;20474;-70
2021/06/21 04:36:55;;;;;;;5.03;2.00;;;18.20;99.90;;;;;;5132129;28;20439;-69
2021/06/21 04:39:22;;;;;;;5.50;2.07;;;18.10;99.90;;;;;;5132116;28;20546;-69
2021/06/21 04:41:49;;;;;;;8.40;2.37;;;18.10;99.90;;;;;;5131798;28;20799;-69
2021/06/21 04:44:16;;;;;;;7.10;2.83;;;18.10;99.90;;;;;;5131103;28;20438;-70
2021/06/21 04:46:43;;;;;;;8.83;2.37;;;18.10;99.90;;;;;;5132010;28;20431;-69
2021/06/21 04:49:13;;;;;;;7.10;1.90;;;18.00;99.90;;;;;;5131364;28;20531;-70
2021/06/21 04:51:41;;;;;;;5.33;2.00;;;18.00;99.90;;;;;;5134077;27;20960;-69
2021/06/21 04:54:10;;;;;;;5.93;2.57;;;17.80;99.90;;;;;;5135323;27;20478;-70
2021/06/21 04:56:37;;;;;;;10.20;2.43;;;17.80;99.90;;;;;;5135823;27;20439;-70
2021/06/21 04:59:05;;;;;;;9.50;2.40;;;17.90;99.90;;;;;;5135196;27;20521;-71
2021/06/21 05:01:32;;;;;;;4.50;1.77;;;18.00;99.90;;;;;;5135837;27;20506;-70
2021/06/21 05:04:00;;;;;;;12.93;2.23;;;18.00;99.90;;;;;;5134997;27;20541;-70
2021/06/21 05:06:28;;;;;;;4.90;2.07;;;18.00;99.90;;;;;;5135764;27;20442;-70
2021/06/21 05:08:56;;;;;;;6.13;1.90;;;18.10;99.90;;;;;;5135597;27;20489;-70
2021/06/21 05:11:24;;;;;;;6.80;2.43;;;18.10;99.90;;;;;;5135702;27;20550;-70
2021/06/21 05:13:51;;;;;;;5.60;1.70;;;18.10;99.90;;;;;;5135189;27;20566;-70
2021/06/21 05:16:18;;;;;;;7.40;2.87;;;18.20;99.90;;;;;;5134634;27;20541;-70
2021/06/21 05:18:44;;;;;;;8.83;2.20;;;18.30;99.90;;;;;;5135489;27;20525;-70
2021/06/21 05:21:11;;;;;;;5.70;1.83;;;18.30;99.90;;;;;;5134368;27;20927;-70
2021/06/21 05:23:38;;;;;;;4.07;1.90;;;18.50;99.90;;;;;;5134962;27;20547;-70
2021/06/21 05:26:06;;;;;;;9.40;1.93;;;18.60;99.90;;;;;;5134461;27;20557;-70
2021/06/21 05:28:34;;;;;;;6.93;1.63;;;18.60;99.90;;;;;;5135376;27;20474;-69
2021/06/21 05:31:01;;;;;;;5.93;1.77;;;18.70;99.90;;;;;;5134567;27;20851;-69
2021/06/21 05:33:28;;;;;;;8.50;2.57;;;18.80;99.90;;;;;;5134898;27;20478;-69
2021/06/21 05:35:55;;;;;;;3.97;2.17;;;18.80;99.90;;;;;;5135168;27;20473;-70
2021/06/21 05:38:22;;;;;;;4.80;1.80;;;18.90;99.90;;;;;;5134475;27;20529;-70
2021/06/21 05:40:49;;;;;;;8.17;1.70;;;18.90;99.90;;;;;;5134808;27;20534;-70
2021/06/21 05:43:15;;;;;;;4.30;2.13;;;19.00;99.90;;;;;;5134081;27;20449;-70
2021/06/21 05:45:44;;;;;;;6.97;2.00;;;19.10;99.90;;;;;;5134700;27;20561;-70
2021/06/21 05:48:11;;;;;;;4.87;1.87;;;19.20;99.90;;;;;;5134359;27;20438;-70
2021/06/21 05:50:39;;;;;;;4.20;1.70;;;19.30;99.90;;;;;;5134946;27;20529;-70
2021/06/21 05:53:06;;;;;;;4.27;1.70;;;19.30;99.90;;;;;;5134285;27;20835;-70
2021/06/21 05:55:33;;;;;;;4.17;1.50;;;19.30;99.90;;;;;;5134707;27;20517;-70
2021/06/21 05:58:01;;;;;;;3.93;1.67;;;19.30;99.90;;;;;;5134080;27;20529;-70
2021/06/21 06:00:28;;;;;;;7.30;2.03;;;19.30;99.90;;;;;;5134598;27;20861;-70
2021/06/21 06:02:56;;;;;;;5.97;1.90;;;19.30;99.90;;;;;;5133930;27;20962;-70
2021/06/21 06:05:23;;;;;;;4.00;1.77;;;19.20;99.90;;;;;;5134024;27;20545;-70
2021/06/21 06:07:50;;;;;;;5.30;1.57;;;19.20;99.90;;;;;;5134175;27;20538;-70
2021/06/21 06:10:17;;;;;;;3.07;2.20;;;19.40;99.90;;;;;;5133371;27;20531;-70
2021/06/21 06:12:45;;;;;;;6.30;2.30;;;19.50;99.90;;;;;;5134398;27;20495;-70
2021/06/21 06:15:13;;;;;;;3.63;1.70;;;19.60;99.90;;;;;;5133849;27;20473;-70
2021/06/21 06:17:40;;;;;;;7.37;1.90;;;19.60;99.90;;;;;;5134296;27;20443;-70
2021/06/21 06:20:10;;;;;;;8.30;2.50;;;19.70;99.90;;;;;;5133328;27;20529;-70
2021/06/21 06:22:37;;;;;;;5.40;1.60;;;19.80;99.90;;;;;;5134349;27;20904;-70
2021/06/21 06:25:05;;;;;;;7.80;2.53;;;19.90;99.90;;;;;;5133535;27;20443;-70
2021/06/21 06:27:32;;;;;;;5.27;1.80;;;20.00;99.90;;;;;;5133900;27;20526;-70
2021/06/21 06:29:59;;;;;;;6.23;1.80;;;20.00;99.90;;;;;;5134318;27;20521;-70
2021/06/21 06:32:26;;;;;;;4.67;1.67;;;20.20;99.90;;;;;;5133215;27;20931;-70
2021/06/21 06:34:53;;;;;;;2.50;1.60;;;20.40;99.90;;;;;;5133859;27;20559;-70
2021/06/21 06:37:21;;;;;;;3.87;1.67;;;20.50;99.90;;;;;;5133389;27;20435;-70
2021/06/21 06:39:48;;;;;;;6.00;1.80;;;20.40;94.60;;;;;;5134279;27;20554;-70
2021/06/21 06:42:15;;;;;;;3.67;1.40;;;20.50;99.90;;;;;;5133406;27;20522;-70
2021/06/21 06:44:41;;;;;;;6.90;1.63;;;20.50;99.90;;;;;;5134086;27;20522;-70
2021/06/21 06:47:09;;;;;;;4.70;1.67;;;20.70;99.90;;;;;;5133333;27;20435;-70
2021/06/21 06:49:36;;;;;;;3.30;1.30;;;20.70;99.90;;;;;;5133799;27;20446;-70
2021/06/21 06:52:03;;;;;;;7.63;1.97;;;20.70;93.10;;;;;;5133619;27;20521;-70
2021/06/21 06:54:44;;;;;;;6.17;1.70;;;20.90;17.30;;;;;;5133591;27;20475;-70
2021/06/21 06:57:10;;;;;;;6.70;1.40;;;21.00;22.80;;;;;;5133063;27;20430;-70
2021/06/21 06:59:40;;;;;;;4.80;2.03;;;21.10;1.00;;;;;;5133299;27;20450;-70
2021/06/21 07:02:08;;;;;;;8.57;2.03;;;21.30;1.00;;;;;;5133006;27;20861;-70
2021/06/21 07:04:37;;;;;;;4.30;1.70;;;21.40;1.00;;;;;;5133392;27;20537;-69
2021/06/21 07:07:05;;;;;;;7.30;2.30;;;21.40;1.00;;;;;;5133069;27;20975;-69
2021/06/21 07:09:35;;;;;;;4.53;2.17;;;21.50;1.00;;;;;;5132745;27;20900;-70
2021/06/21 07:12:03;;;;;;;3.33;1.70;;;21.60;1.00;;;;;;5133288;27;20839;-70
2021/06/21 07:14:30;;;;;;;3.40;1.33;;;21.70;99.90;;;;;;5132201;27;20475;-70
2021/06/21 07:16:57;;;;;;;3.80;1.50;;;21.80;99.90;;;;;;5132822;27;20471;-70
2021/06/21 07:19:24;;;;;;;4.20;1.90;;;21.90;1.00;;;;;;5132712;27;20469;-69
2021/06/21 07:21:52;;;;;;;4.10;1.70;;;21.80;1.00;;;;;;5133072;27;20459;-70
2021/06/21 07:24:20;;;;;;;4.53;1.20;;;22.00;99.90;;;;;;5132174;27;20990;-70
2021/06/21 07:26:50;;;;;;;2.60;1.30;;;22.20;1.00;;;;;;5132907;27;20439;-70
2021/06/21 07:29:18;;;;;;;4.40;2.23;;;22.20;99.90;;;;;;5131950;27;20525;-70
2021/06/21 07:31:46;;;;;;;4.63;1.50;;;22.30;99.90;;;;;;5132850;27;20462;-70
2021/06/21 07:34:13;;;;;;;2.47;1.57;;;22.30;1.00;;;;;;5132278;27;20482;-70
2021/06/21 07:36:40;;;;;;;3.13;1.67;;;22.40;1.00;;;;;;5132605;27;20775;-70
2021/06/21 07:39:08;;;;;;;2.73;1.43;;;22.50;99.90;;;;;;5132137;27;20443;-70
2021/06/21 07:41:35;;;;;;;3.33;1.87;;;22.50;99.90;;;;;;5132624;27;20435;-70
2021/06/21 07:44:04;;;;;;;5.57;1.80;;;22.50;1.00;;;;;;5132805;27;20445;-69
2021/06/21 07:46:32;;;;;;;3.93;1.37;;;22.80;1.00;;;;;;5131948;27;20478;-70
2021/06/21 07:48:59;;;;;;;6.60;1.60;;;22.70;19.50;;;;;;5132512;27;20457;-70
2021/06/21 07:51:26;;;;;;;4.63;1.63;;;22.90;22.90;;;;;;5131968;27;20530;-70
2021/06/21 07:53:54;;;;;;;2.23;1.40;;;23.00;99.90;;;;;;5134115;27;20541;-69
2021/06/21 07:56:22;;;;;;;2.83;1.40;;;23.00;99.90;;;;;;5132352;27;20438;-69
2021/06/21 07:58:49;;;;;;;1.90;1.37;;;23.00;1.00;;;;;;5132206;27;20449;-69
2021/06/21 08:01:17;;;;;;;3.30;1.30;;;23.10;1.00;;;;;;5131769;27;20984;-69
2021/06/21 08:03:45;;;;;;;7.70;1.73;;;23.10;1.00;;;;;;5132435;27;20569;-69
2021/06/21 08:06:12;;;;;;;3.97;1.50;;;23.00;99.90;;;;;;5131890;27;20475;-69
2021/06/21 08:08:40;;;;;;;2.80;1.20;;;23.00;1.00;;;;;;5132034;27;20470;-69
2021/06/21 08:11:07;;;;;;;4.00;2.53;;;23.10;1.00;;;;;;5132253;27;20525;-70
2021/06/21 08:13:35;;;;;;;4.57;1.50;;;23.20;99.90;;;;;;5131989;28;20443;-69
2021/06/21 08:16:02;;;;;;;2.60;1.40;;;23.50;1.00;;;;;;5132262;28;20585;-69
2021/06/21 08:18:30;;;;;;;3.40;1.30;;;23.50;59.20;;;;;;5132078;28;20534;-70
2021/06/21 08:20:57;;;;;;;2.50;1.33;;;23.50;1.00;;;;;;5135429;28;20491;-69
2021/06/21 08:23:24;;;;;;;3.30;1.60;;;23.60;1.00;;;;;;5132184;28;20442;-70
2021/06/21 08:25:51;;;;;;;7.80;1.60;;;23.70;1.00;;;;;;5134664;27;20787;-68
2021/06/21 08:28:19;;;;;;;2.00;1.13;;;23.80;1.00;;;;;;5135523;27;20478;-69
2021/06/21 08:30:48;;;;;;;4.60;2.17;;;23.40;1.00;;;;;;5136341;27;20466;-70
2021/06/21 08:33:15;;;;;;;4.70;1.30;;;23.30;1.00;;;;;;5135380;27;20922;-70
2021/06/21 08:35:43;;;;;;;3.33;1.50;;;23.40;1.00;;;;;;5136309;27;20626;-69
2021/06/21 08:38:11;;;;;;;8.20;1.67;;;23.40;1.00;;;;;;5135374;27;20557;-70
2021/06/21 08:40:38;;;;;;;4.20;1.67;;;23.40;65.60;;;;;;5136365;27;20438;-69
2021/06/21 08:43:06;;;;;;;2.73;1.30;;;23.20;1.00;;;;;;5136525;27;20442;-70
2021/06/21 08:45:34;;;;;;;4.80;1.97;;;23.30;1.00;;;;;;5135561;27;20829;-70
2021/06/21 08:48:01;;;;;;;4.27;1.30;;;23.40;1.00;;;;;;5136221;27;20447;-70
2021/06/21 08:50:28;;;;;;;1.80;1.20;;;23.60;1.00;;;;;;5135451;27;20481;-69
2021/06/21 08:52:59;;;;;;;2.13;1.47;;;23.40;99.90;;;;;;5135624;27;20522;-70
2021/06/21 08:55:26;;;;;;;5.70;1.73;;;23.40;99.90;;;;;;5135106;27;20459;-69
2021/06/21 08:57:52;;;;;;;2.50;1.33;;;23.60;99.90;;;;;;5135820;27;20538;-68
2021/06/21 09:00:22;;;;;;;3.53;1.40;;;23.70;99.90;;;;;;5135214;27;20522;-68
2021/06/21 09:02:50;;;;;;;2.87;1.17;;;23.80;99.90;;;;;;5135709;27;20470;-69
2021/06/21 09:05:18;;;;;;;4.43;1.60;;;23.90;99.90;;;;;;5135154;27;20466;-69
2021/06/21 09:07:47;;;;;;;3.53;1.80;;;23.80;1.00;;;;;;5135685;27;20545;-69
2021/06/21 09:10:27;;;;;;;2.87;1.60;;;23.80;94.90;;;;;;5135265;27;20471;-69
2021/06/21 09:13:09;;;;;;;4.00;1.30;;;24.00;99.90;;;;;;5135720;27;20593;-69
2021/06/21 09:15:38;;;;;;;3.97;1.63;;;23.80;1.00;;;;;;5134482;27;20565;-69
2021/06/21 09:18:33;;;;;;;3.00;1.40;;;23.70;1.00;;;;;;5135503;27;20776;-69
2021/06/21 09:21:27;;;;;;;3.90;1.97;;;24.00;1.00;;;;;;5135497;27;20447;-69
2021/06/21 09:23:56;;;;;;;5.20;1.50;;;24.30;1.00;;;;;;5135137;27;20926;-69
2021/06/21 09:26:26;;;;;;;2.40;1.57;;;24.40;1.00;;;;;;5134868;27;20541;-69
2021/06/21 09:28:53;;;;;;;2.80;1.37;;;24.50;1.00;;;;;;5135068;27;20427;-70
2021/06/21 09:31:21;;;;;;;2.73;1.27;;;24.50;1.00;;;;;;5134278;27;20435;-70
2021/06/21 09:33:48;;;;;;;2.70;1.30;;;24.60;1.00;;;;;;5135331;27;20940;-69
2021/06/21 09:36:33;;;;;;;4.27;1.60;;;24.20;1.00;;;;;;5134008;27;20573;-69
2021/06/21 09:39:20;;;;;;;7.73;1.57;;;24.60;1.00;;;;;;5134879;27;20541;-69
2021/06/21 09:42:16;;;;;;;2.47;1.60;;;24.50;1.00;;;;;;5135070;27;20515;-69
2021/06/21 09:44:46;;;;;;;2.70;1.63;;;24.70;1.00;;;;;;5135138;27;20434;-69
2021/06/21 09:47:25;;;;;;;5.43;1.73;;;24.70;1.00;;;;;;5134706;27;20481;-69
2021/06/21 09:50:11;;;;;;;3.10;2.00;;;24.70;1.00;;;;;;5135362;27;20738;-70
2021/06/21 09:52:43;;;;;;;1.70;1.03;;;24.70;1.00;;;;;;5134255;27;20518;-70
2021/06/21 09:55:17;;;;;;;1.27;1.13;;;24.90;1.00;;;;;;5134802;27;20549;-70
2021/06/21 09:57:46;;;;;;;5.53;1.70;;;25.20;99.90;;;;;;5134818;27;20435;-70
2021/06/21 10:00:16;;;;;;;2.47;1.50;;;25.20;99.90;;;;;;5134636;27;20469;-70
2021/06/21 10:02:43;;;;;;;2.23;1.10;;;25.20;99.90;;;;;;5134578;27;20471;-70
2021/06/21 10:05:21;;;;;;;4.37;1.60;;;25.30;99.90;;;;;;5134103;27;21037;-70
2021/06/21 10:07:48;;;;;;;2.30;1.23;;;25.30;99.90;;;;;;5134205;27;20446;-70
2021/06/21 10:10:19;;;;;;;3.73;1.60;;;25.30;99.90;;;;;;5134253;27;20470;-70
2021/06/21 10:12:48;;;;;;;1.47;1.10;;;25.30;99.90;;;;;;5134106;27;20441;-70
2021/06/21 10:15:17;;;;;;;4.13;1.93;;;25.50;99.90;;;;;;5133654;27;20486;-70
2021/06/21 10:17:44;;;;;;;3.23;1.53;;;25.50;99.90;;;;;;5133978;27;20594;-70
2021/06/21 10:20:12;;;;;;;2.30;1.77;;;;;;;;;;5133954;27;20469;-70
2021/06/21 10:22:39;;;;;;;2.13;1.60;;;;;;;;;;5133195;27;20467;-70
2021/06/21 10:25:08;;;;;;;3.80;1.80;;;;;;;;;;5134083;27;20521;-71
2021/06/21 10:27:35;;;;;;;1.57;1.37;;;;;;;;;;5133302;27;20957;-70
2021/06/21 10:30:04;;;;;;;2.33;1.80;;;;;;;;;;5134130;27;20518;-70
2021/06/21 10:32:31;;;;;;;1.90;1.50;;;;;;;;;;5133056;27;20989;-69
2021/06/21 10:34:58;;;;;;;2.97;1.77;;;;;;;;;;5133592;27;20992;-69
2021/06/21 10:37:27;;;;;;;4.83;2.40;;;;;;;;;;5133401;27;20439;-69
2021/06/21 10:39:55;;;;;;;1.60;1.50;;;;;;;;;;5133660;27;20526;-69
2021/06/21 10:42:23;;;;;;;4.53;2.10;;;;;;;;;;5133008;27;20441;-69
2021/06/21 10:44:53;;;;;;;1.93;1.30;;;;;;;;;;5133477;27;20957;-69
2021/06/21 10:47:32;;;;;;;1.40;1.30;;;;;;;;;;5133203;27;20457;-70
2021/06/21 10:50:01;;;;;;;2.70;2.20;;;;;;;;;;5132813;27;20451;-70
2021/06/21 10:52:35;;;;;;;1.90;1.30;;;;;;;;;;5133123;27;20442;-70
2021/06/21 10:55:21;;;;;;;1.80;1.70;;;;;;;;;;5132959;27;20509;-70
2021/06/21 10:57:48;;;;;;;4.83;1.70;;;;;;;;;;5132874;27;20537;-70
2021/06/21 11:00:16;;;;;;;4.70;1.73;;;;;;;;;;5132424;27;20461;-70
2021/06/21 11:02:45;;;;;;;2.87;1.57;;;;;;;;;;5132753;27;20438;-70
2021/06/21 11:05:12;;;;;;;6.63;2.30;;;;;;;;;;5132782;27;20434;-69
2021/06/21 11:07:40;;;;;;;1.70;1.60;;;;;;;;;;5132035;27;20451;-70
2021/06/21 11:10:09;;;;;;;3.43;1.70;;;;;;;;;;5132195;27;20498;-70
2021/06/21 11:12:37;;;;;;;3.33;1.40;;;;;;;;;;5132108;27;20482;-69
2021/06/21 11:15:25;;;;;;;2.60;1.50;;;;;;;;;;5132245;27;20445;-69
2021/06/21 11:17:59;;;;;;;6.00;1.90;;;;;;;;;;5126258;27;20533;-70
2021/06/21 11:20:33;;;;;;;2.30;1.40;;;;;;;;;;5131826;27;20454;-70
2021/06/21 11:23:01;;;;;;;3.10;1.43;;;;;;;;;;5132464;27;20506;-70
2021/06/21 11:25:29;;;;;;;2.47;1.67;;;;;;;;;;5131579;27;20447;-70
2021/06/21 11:27:56;;;;;;;1.93;1.27;;;;;;;;;;5132157;27;20443;-70
2021/06/21 11:30:25;;;;;;;2.37;1.40;;;;;;;;;;5131563;27;20450;-70
2021/06/21 11:32:56;;;;;;;2.43;1.80;;;;;;;;;;5132025;27;20443;-70
2021/06/21 11:35:38;;;;;;;2.37;1.67;;;;;;;;;;5131385;27;20553;-70
2021/06/21 11:38:20;;;;;;;3.63;1.50;;;;;;;;;;5131100;27;20442;-70
2021/06/21 11:40:48;;;;;;;2.30;1.73;;;;;;;;;;5132230;27;20418;-70
2021/06/21 11:43:17;;;;;;;3.30;1.67;;;;;;;;;;5132129;27;20447;-70
2021/06/21 11:46:02;;;;;;;1.63;1.30;;;;;;;;;;5131118;27;20477;-70
2021/06/21 11:48:35;;;;;;;2.93;1.63;;;;;;;;;;5131585;27;20427;-71
2021/06/21 11:51:10;;;;;;;2.83;2.00;;;25.60;99.90;;;;;;5132309;27;20431;-70
2021/06/21 11:53:41;;;;;;;5.43;1.57;;;27.30;99.90;;;;;;5131493;27;20430;-70
2021/06/21 11:56:09;;;;;;;2.57;1.40;;;27.40;99.90;;;;;;5131690;27;20494;-70
2021/06/21 11:58:36;;;;;;;5.93;2.30;;;26.70;99.90;;;;;;5130910;27;20896;-70
2021/06/21 12:01:16;;;;;;;3.33;2.20;;;27.70;99.90;;;;;;5131600;27;20525;-70
2021/06/21 12:03:44;;;;;;;2.43;1.63;;;27.50;99.90;;;;;;5131428;27;20821;-70
2021/06/21 12:06:13;;;;;;;3.57;1.30;;;27.40;99.90;;;;;;5131660;27;20446;-70
2021/06/21 12:08:40;;;;;;;2.10;1.20;;;27.40;99.90;;;;;;5130940;27;20482;-70
2021/06/21 12:11:14;;;;;;;3.10;2.10;;;27.50;99.90;;;;;;5131973;27;20834;-70
2021/06/21 12:13:42;;;;;;;4.00;1.50;;;27.60;99.90;;;;;;5131008;27;20427;-70
2021/06/21 12:16:09;;;;;;;2.20;1.30;;;27.70;99.90;;;;;;5131757;28;20581;-70
2021/06/21 12:18:36;;;;;;;2.23;1.73;;;28.10;99.90;;;;;;5131159;28;20434;-70
2021/06/21 12:21:03;;;;;;;1.63;1.53;;;28.10;99.90;;;;;;5131565;28;20438;-70
2021/06/21 12:23:31;;;;;;;2.70;1.27;;;28.30;99.90;;;;;;5132304;28;20530;-70
2021/06/21 12:25:57;;;;;;;2.63;1.70;;;28.40;99.90;;;;;;5131334;28;20499;-70
2021/06/21 12:28:28;;;;;;;1.73;1.40;;;28.30;99.90;;;;;;5131379;28;20589;-70
2021/06/21 12:30:57;;;;;;;2.20;1.57;;;28.40;99.90;;;;;;5131686;28;20863;-71
2021/06/21 12:33:34;;;;;;;3.07;1.90;;;28.70;99.90;;;;;;5131171;28;20524;-70
2021/06/21 12:36:17;;;;;;;2.70;1.60;;;28.50;99.90;;;;;;5131887;28;20560;-71
2021/06/21 12:38:46;;;;;;;1.73;1.27;;;28.80;99.90;;;;;;5131292;28;20729;-71
2021/06/21 12:41:19;;;;;;;2.57;1.40;;;28.90;99.90;;;;;;5131673;28;20533;-70
2021/06/21 12:43:54;;;;;;;1.67;1.23;;;29.00;99.90;;;;;;5131298;28;20464;-70
2021/06/21 12:46:23;;;;;;;2.60;1.40;;;29.10;99.60;;;;;;5131242;28;20977;-71
2021/06/21 12:48:50;;;;;;;1.93;1.40;;;29.60;93.70;;;;;;5131260;28;20442;-70
2021/06/21 12:51:19;;;;;;;3.47;1.70;;;29.50;96.40;;;;;;5131500;28;20521;-71
2021/06/21 12:53:48;;;;;;;2.93;1.73;;;29.20;99.90;;;;;;5131076;28;20438;-71
2021/06/21 12:56:28;;;;;;;4.10;1.90;;;28.90;99.90;;;;;;5131200;28;20566;-70
2021/06/21 12:58:57;;;;;;;2.40;1.50;;;29.10;99.90;;;;;;5131830;28;20475;-70
2021/06/21 13:01:29;;;;;;;2.60;1.50;;;29.20;99.90;;;;;;5131336;28;20525;-71
2021/06/21 13:03:57;;;;;;;3.20;1.70;;;;;;;;;;5131733;28;20440;-71
2021/06/21 13:06:32;;;;;;;4.63;1.70;;;;;;;;;;5131637;28;20478;-70
2021/06/21 13:09:04;;;;;;;2.03;1.70;;;;;;;;;;5131223;28;20224;-71
2021/06/21 13:11:31;;;;;;;3.20;2.13;;;;;;;;;;5131143;27;20529;-71